Willow Run Airport
KYIP : rendu visible

Aérodrome :











RETROUVEZ-NOUS SUR...

 
LOGIN :

S'inscrire | Disclaimer

   EN    FR    IT 

 









Légende :    VFR   VFR Marginal   IFR   IFR Intensif   IFR Très Intensif
Visi : 
Plafond : 
>= 8 km
>= 3000ft
5 à 8 km
1000 à 3000 ft
1500m à 5 km
500 à 1000 ft
800 à 1500m
200 à 500 ft
< 800m
< 200 ft
Symboles :   Orages  Brouillard  Fortes neiges  Fortes précipitations  Vent > 20 kt






- Altitude de l'aérodrome : 716 ft
- Code IATA : YIP


KYIP - Willow Run

DERNIER METAR :
  • 210753Z 15007KT 8SM CLR 04/01 A3015 RMK AO2 SLP213 T00440011

METARs EXPIRÉS :
  • 210700Z 15008KT 7SM CLR 05/01 A3016 RMK AO2 T00500011
  • 210653Z 14008KT 7SM OVC027 05/01 A3016 RMK AO2 SLP217 T00500011

TAF KYIP
Valide du 21 à 06h jusqu'au 22 à 06h UTC


210520Z 2106/2206 18005KT 6SM BR OVC024
FM210900 16006KT P6SM SCT090 OVC150
FM211400 17012KT P6SM SCT060 OVC090
FM211700 19014G22KT 6SM -SHRA BKN040 OVC060
FM212000 20018G27KT P6SM -SHRA BKN022 OVC040
FM220300 26020G28KT P6SM OVC028



MET'MAP, la Météo Aéronautique d'un coup d'oeil ! - Copyright ORBIFLY Décembre 2007 - Disclaimer

ORBIFLY MET'MAP TEAM :

Programmation & Développement : Alexandra Zaïnal
Conception & Développement : Baudouin d'Aumeries
Co-Programmation & Développement : Marc-Olivier Méhu
Soutien technique & logistique : Manuel Goepfert

Contact : metmap@orbifly.com




SOURCES & CREDITS :

   NOAA       Earth
Advisory